Mullan, ID (83846)

4:42 AM PST on February 14, 2016 (GMT -0800)
Little Beaver Creek | | Change Station
CLOSE
Current Station
Personal Weather Station
Location: Trout Creek, MT
Elevation: 2583 ft
Nearby Weather Stations
Active Advisory: Winter Weather Advisory

Elev 2583 ft 47.69 °N, 115.48 °W | Updated 2 minutes ago

Overcast
Overcast
32.3 °F
Feels Like 32 °F
N
1.0
Wind Variable Wind from NW
Gusts 1.0 mph

Today
High -- | Low -- °F
--% Chance of Precip.
Yesterday
High -- | Low -- °F
Precip. -- in
Pressure 30.03 in
Visibility 10.0 miles
Clouds Overcast 1300 ft
Windchill 32 °F
Dew Point 30 °F
Humidity 91%
Rainfall 0.05 in
Snow Depth Not available.
6:50 AM 5:04 PM
Waxing Crescent, 41% visible
METAR KCOE 141235Z AUTO 24011KT 10SM OVC013 04/02 A3003 RMK AO1
Pressure 30.03 in
Visibility 10.0 miles
Clouds Overcast 1300 ft
Windchill 32 °F
Dew Point 30 °F
Humidity 91%
Rainfall 0.05 in
Snow Depth Not available.
6:50 AM 5:04 PM
Waxing Crescent, 41% visible
METAR KCOE 141235Z AUTO 24011KT 10SM OVC013 04/02 A3003 RMK AO1

10-Day Weather Forecast

Almanac

Astronomy

Feb. 14, 2016 Rise Set
Actual Time
Civil Twilight
Nautical Twilight
Astronomical Twilight
Moon
Length of Visible Light
Length of Day
Tomorrow will be .
, % of the Moon is Illuminated

Today's Extremes

State Highs State Lows

Community

WunderPhotos

Upload Photos

1,892,775 photos uploaded!

WunderBlog® & News

Nearby

Air Quality

  Air Quality AQ Index Pollutant
Not available.

Snow Depth

Station Depth Elevation

Earthquake Activity

City Distance Mag. Time & Date
Minimum magnitude displayed is 2.5.

Coastal Water Temperatures

Place Temperature

Stations

Nearby Weather Stations

Station Location Temp. Windchill Dew Point Humidity Wind Precip. Elev Updated Type
                   

Watches & Warnings

Winter Weather Advisory
Issued: 10:09 PM PST Feb. 13, 2016 – National Weather Service

... Winter Weather Advisory remains in effect until 10 am PST
Sunday above 4000 feet...

* locations... Mullan... Lookout Pass.

* Snow accumulations... an additional 3 to 6 inches.

* Timing... light snow will develop this evening... increase in
intensity overnight and into Sunday morning

* impacts... snow covered roadways... including I-90 over Lookout
Pass... will lead to locally hazardous driving conditions.

* Snow level... 3500 feet.

* Web page: for a detailed view of the hazard area visit
http://www.Wrh.NOAA.Gov/map/?Wfo=otx.

Precautionary/preparedness actions...

A Winter Weather Advisory for snow means that periods of snow
will cause primarily travel difficulties. Be prepared for snow
covered roads and limited visibilities... and use caution while
driving.